Terminal Aerodrome Forecast
Issued by NWS Melbourne, FL

Home | Current Version | Previous Version | Text Only | Print | Product List | Glossary On
Versions: 1 2 3 4 5 6 7 8 9 10 11 12 13 14 15 16 17 18 19
000
FTUS42 KMLB 221121
TAFDAB
TAF
KDAB 221121Z 2212/2312 11003KT P6SM VCSH FEW015 SCT150 OVC200
     FM221400 13008KT P6SM VCSH SCT020 BKN040 OVC060
      TEMPO 2214/2218 2SM SHRA BKN025
     FM230200 12004KT P6SM FEW030 BKN100 OVC250=

USA.gov is the U.S. government's official web portal to all federal, state and local government web resources and services.